| Date | Time | Temp. (oF) | Dew Point (oF) | Rel. Hum. (%) | Press. (in.) | Wind Dir. | Wind Speed (mph) | Hourly Rainfall (in.) |
|
|---|---|---|---|---|---|---|---|---|---|
| 1 | 04/29 | 00:00 | 46 | 40 | 80 | 30.01 | SSE | 3 | 0.00 |
| 2 | 04/28 | 23:00 | 46 | 39 | 77 | 30.02 | SSW | 0 | 0.00 |
| 3 | 04/28 | 22:00 | 48 | 39 | 73 | 30.02 | W | 2 | 0.00 |
| 4 | 04/28 | 21:00 | 50 | 40 | 70 | 29.99 | WSW | 3 | 0.00 |
| 5 | 04/28 | 20:00 | 52 | 40 | 65 | 29.96 | WSW | 2 | 0.00 |
| 6 | 04/28 | 19:00 | 53 | 40 | 62 | 29.94 | SSW | 5 | 0.00 |
| 7 | 04/28 | 18:00 | 53 | 41 | 65 | 29.95 | SSW | 12 | 0.00 |
| 8 | 04/28 | 17:00 | 56 | 42 | 61 | 29.92 | NW | 9 | 0.00 |
| 9 | 04/28 | 16:00 | 58 | 36 | 45 | 29.92 | NW | 8 | 0.00 |
| 10 | 04/28 | 15:00 | 59 | 33 | 38 | 29.90 | S | 8 | 0.00 |
| 11 | 04/28 | 14:00 | 61 | 36 | 40 | 29.88 | WSW | 9 | 0.00 |
| 12 | 04/28 | 13:00 | 61 | 38 | 43 | 29.89 | NW | 8 | 0.00 |
| 13 | 04/28 | 12:00 | 59 | 37 | 45 | 29.91 | WSW | 8 | 0.00 |
| 14 | 04/28 | 11:00 | 57 | 40 | 55 | 29.93 | WSW | 6 | 0.00 |
| 15 | 04/28 | 10:00 | 55 | 39 | 57 | 29.95 | WSW | 10 | 0.00 |
| 16 | 04/28 | 09:00 | 51 | 39 | 65 | 29.97 | WNW | 5 | 0.00 |
| 17 | 04/28 | 08:00 | 50 | 40 | 69 | 29.97 | SW | 3 | 0.00 |
| 18 | 04/28 | 07:00 | 45 | 38 | 77 | 29.95 | WSW | 2 | 0.00 |
| 19 | 04/28 | 06:00 | 45 | 37 | 75 | 29.95 | W | 3 | 0.00 |
| 20 | 04/28 | 05:00 | 47 | 38 | 73 | 29.93 | WNW | 2 | 0.00 |
| 21 | 04/28 | 04:00 | 48 | 38 | 70 | 29.91 | WNW | 3 | 0.00 |
| 22 | 04/28 | 03:00 | 50 | 39 | 67 | 29.89 | WNW | 4 | 0.00 |
| 23 | 04/28 | 02:00 | 51 | 40 | 66 | 29.88 | WNW | 4 | 0.00 |
| 24 | 04/28 | 01:00 | 52 | 40 | 64 | 29.86 | SW | 4 | 0.00 |